sensor_id;sensor_type;location;lat;lon;timestamp;P1;durP1;ratioP1;P2;durP2;ratioP2
67986;SDS011;54767;53.800;15.956;2022-07-22T00:00:53;8.10;;;6.70;;
67986;SDS011;54767;53.800;15.956;2022-07-22T00:03:21;10.10;;;7.00;;
67986;SDS011;54767;53.800;15.956;2022-07-22T00:05:48;8.60;;;7.00;;
67986;SDS011;54767;53.800;15.956;2022-07-22T00:08:15;9.90;;;7.10;;
67986;SDS011;54767;53.800;15.956;2022-07-22T00:10:42;8.30;;;6.80;;
67986;SDS011;54767;53.800;15.956;2022-07-22T00:13:10;7.40;;;6.60;;
67986;SDS011;54767;53.800;15.956;2022-07-22T00:15:37;7.50;;;6.70;;
67986;SDS011;54767;53.800;15.956;2022-07-22T00:18:04;7.40;;;6.50;;
67986;SDS011;54767;53.800;15.956;2022-07-22T00:20:31;8.00;;;6.90;;
67986;SDS011;54767;53.800;15.956;2022-07-22T00:22:58;9.10;;;7.30;;
67986;SDS011;54767;53.800;15.956;2022-07-22T00:25:25;8.00;;;7.10;;
67986;SDS011;54767;53.800;15.956;2022-07-22T00:27:54;9.60;;;7.10;;
67986;SDS011;54767;53.800;15.956;2022-07-22T00:30:21;10.10;;;7.00;;
67986;SDS011;54767;53.800;15.956;2022-07-22T00:32:48;9.30;;;7.30;;
67986;SDS011;54767;53.800;15.956;2022-07-22T00:35:15;7.80;;;7.00;;
67986;SDS011;54767;53.800;15.956;2022-07-22T00:37:43;7.50;;;6.70;;
67986;SDS011;54767;53.800;15.956;2022-07-22T00:40:10;8.60;;;7.10;;
67986;SDS011;54767;53.800;15.956;2022-07-22T00:42:39;9.20;;;7.30;;
67986;SDS011;54767;53.800;15.956;2022-07-22T00:45:06;8.10;;;7.30;;
67986;SDS011;54767;53.800;15.956;2022-07-22T00:47:34;9.30;;;7.20;;
67986;SDS011;54767;53.800;15.956;2022-07-22T00:50:02;8.30;;;7.40;;
67986;SDS011;54767;53.800;15.956;2022-07-22T00:52:30;9.20;;;7.10;;
67986;SDS011;54767;53.800;15.956;2022-07-22T00:54:59;7.40;;;6.60;;
67986;SDS011;54767;53.800;15.956;2022-07-22T00:57:27;8.90;;;7.10;;
67986;SDS011;54767;53.800;15.956;2022-07-22T00:59:55;8.20;;;7.00;;
67986;SDS011;54767;53.800;15.956;2022-07-22T01:02:22;7.80;;;6.80;;
67986;SDS011;54767;53.800;15.956;2022-07-22T01:04:49;8.80;;;7.90;;
67986;SDS011;54767;53.800;15.956;2022-07-22T01:07:17;8.10;;;7.00;;
67986;SDS011;54767;53.800;15.956;2022-07-22T01:09:44;8.30;;;7.40;;
67986;SDS011;54767;53.800;15.956;2022-07-22T01:12:13;9.30;;;7.90;;
67986;SDS011;54767;53.800;15.956;2022-07-22T01:14:40;8.60;;;7.50;;
67986;SDS011;54767;53.800;15.956;2022-07-22T01:17:08;8.40;;;7.30;;
67986;SDS011;54767;53.800;15.956;2022-07-22T01:19:36;10.70;;;7.60;;
67986;SDS011;54767;53.800;15.956;2022-07-22T01:22:04;8.70;;;7.70;;
67986;SDS011;54767;53.800;15.956;2022-07-22T01:24:32;10.90;;;7.70;;
67986;SDS011;54767;53.800;15.956;2022-07-22T01:26:59;10.20;;;7.30;;
67986;SDS011;54767;53.800;15.956;2022-07-22T01:29:26;9.00;;;7.60;;
67986;SDS011;54767;53.800;15.956;2022-07-22T01:31:53;8.40;;;7.50;;
67986;SDS011;54767;53.800;15.956;2022-07-22T01:34:20;11.40;;;7.90;;
67986;SDS011;54767;53.800;15.956;2022-07-22T01:36:47;9.30;;;7.60;;
67986;SDS011;54767;53.800;15.956;2022-07-22T01:39:14;12.30;;;7.60;;
67986;SDS011;54767;53.800;15.956;2022-07-22T01:41:42;9.20;;;7.60;;
67986;SDS011;54767;53.800;15.956;2022-07-22T01:44:09;9.10;;;7.60;;
67986;SDS011;54767;53.800;15.956;2022-07-22T01:46:36;10.20;;;7.90;;
67986;SDS011;54767;53.800;15.956;2022-07-22T01:49:04;9.30;;;8.30;;
67986;SDS011;54767;53.800;15.956;2022-07-22T01:51:31;11.40;;;8.40;;
67986;SDS011;54767;53.800;15.956;2022-07-22T01:53:58;12.10;;;8.90;;
67986;SDS011;54767;53.800;15.956;2022-07-22T01:56:25;11.50;;;8.50;;
67986;SDS011;54767;53.800;15.956;2022-07-22T01:58:52;10.50;;;8.80;;
67986;SDS011;54767;53.800;15.956;2022-07-22T02:01:20;10.80;;;8.40;;
67986;SDS011;54767;53.800;15.956;2022-07-22T02:03:47;9.60;;;8.60;;
67986;SDS011;54767;53.800;15.956;2022-07-22T02:06:15;11.80;;;8.80;;
67986;SDS011;54767;53.800;15.956;2022-07-22T02:08:42;12.20;;;9.10;;
67986;SDS011;54767;53.800;15.956;2022-07-22T02:11:09;11.50;;;9.90;;
67986;SDS011;54767;53.800;15.956;2022-07-22T02:13:36;12.90;;;9.70;;
67986;SDS011;54767;53.800;15.956;2022-07-22T02:16:03;10.80;;;9.40;;
67986;SDS011;54767;53.800;15.956;2022-07-22T02:18:30;11.90;;;9.90;;
67986;SDS011;54767;53.800;15.956;2022-07-22T02:20:57;14.50;;;9.70;;
67986;SDS011;54767;53.800;15.956;2022-07-22T02:23:24;12.10;;;9.30;;
67986;SDS011;54767;53.800;15.956;2022-07-22T02:25:51;11.10;;;9.90;;
67986;SDS011;54767;53.800;15.956;2022-07-22T02:28:18;13.80;;;10.80;;
67986;SDS011;54767;53.800;15.956;2022-07-22T02:30:45;13.00;;;10.40;;
67986;SDS011;54767;53.800;15.956;2022-07-22T02:33:12;13.70;;;9.60;;
67986;SDS011;54767;53.800;15.956;2022-07-22T02:35:41;14.70;;;10.40;;
67986;SDS011;54767;53.800;15.956;2022-07-22T02:38:08;12.30;;;10.10;;
67986;SDS011;54767;53.800;15.956;2022-07-22T02:40:34;12.10;;;10.60;;
67986;SDS011;54767;53.800;15.956;2022-07-22T02:43:02;12.60;;;10.50;;
67986;SDS011;54767;53.800;15.956;2022-07-22T02:45:32;13.20;;;10.30;;
67986;SDS011;54767;53.800;15.956;2022-07-22T02:47:59;14.00;;;10.60;;
67986;SDS011;54767;53.800;15.956;2022-07-22T02:50:27;14.30;;;10.50;;
67986;SDS011;54767;53.800;15.956;2022-07-22T02:52:54;15.70;;;10.90;;
67986;SDS011;54767;53.800;15.956;2022-07-22T02:55:21;16.20;;;10.80;;
67986;SDS011;54767;53.800;15.956;2022-07-22T02:57:48;12.60;;;11.00;;
67986;SDS011;54767;53.800;15.956;2022-07-22T03:00:15;15.80;;;10.70;;
67986;SDS011;54767;53.800;15.956;2022-07-22T03:02:42;13.10;;;10.70;;
67986;SDS011;54767;53.800;15.956;2022-07-22T03:05:09;15.60;;;10.80;;
67986;SDS011;54767;53.800;15.956;2022-07-22T03:07:36;14.50;;;10.30;;
67986;SDS011;54767;53.800;15.956;2022-07-22T03:10:03;14.00;;;10.90;;
67986;SDS011;54767;53.800;15.956;2022-07-22T03:12:31;15.80;;;11.10;;
67986;SDS011;54767;53.800;15.956;2022-07-22T03:14:58;12.90;;;10.70;;
67986;SDS011;54767;53.800;15.956;2022-07-22T03:17:25;15.90;;;10.60;;
67986;SDS011;54767;53.800;15.956;2022-07-22T03:19:52;15.10;;;11.10;;
67986;SDS011;54767;53.800;15.956;2022-07-22T03:22:19;15.30;;;11.40;;
67986;SDS011;54767;53.800;15.956;2022-07-22T03:24:46;16.80;;;11.50;;
67986;SDS011;54767;53.800;15.956;2022-07-22T03:27:13;14.80;;;11.30;;
67986;SDS011;54767;53.800;15.956;2022-07-22T03:29:40;12.90;;;10.90;;
67986;SDS011;54767;53.800;15.956;2022-07-22T03:32:07;15.10;;;11.20;;
67986;SDS011;54767;53.800;15.956;2022-07-22T03:34:35;15.70;;;11.50;;
67986;SDS011;54767;53.800;15.956;2022-07-22T03:37:17;18.20;;;11.60;;
67986;SDS011;54767;53.800;15.956;2022-07-22T03:39:45;19.00;;;13.00;;
67986;SDS011;54767;53.800;15.956;2022-07-22T03:42:13;18.40;;;12.50;;
67986;SDS011;54767;53.800;15.956;2022-07-22T03:44:39;19.60;;;12.30;;
67986;SDS011;54767;53.800;15.956;2022-07-22T03:47:07;20.50;;;13.20;;
67986;SDS011;54767;53.800;15.956;2022-07-22T03:49:34;19.50;;;13.00;;
67986;SDS011;54767;53.800;15.956;2022-07-22T03:52:01;22.40;;;13.60;;
67986;SDS011;54767;53.800;15.956;2022-07-22T03:54:28;22.10;;;13.60;;
67986;SDS011;54767;53.800;15.956;2022-07-22T03:56:55;21.80;;;14.30;;
67986;SDS011;54767;53.800;15.956;2022-07-22T03:59:21;23.40;;;13.90;;
67986;SDS011;54767;53.800;15.956;2022-07-22T04:01:49;25.00;;;13.80;;
67986;SDS011;54767;53.800;15.956;2022-07-22T04:04:16;26.20;;;14.40;;
67986;SDS011;54767;53.800;15.956;2022-07-22T04:06:43;24.90;;;14.50;;
67986;SDS011;54767;53.800;15.956;2022-07-22T04:09:11;24.40;;;14.00;;
67986;SDS011;54767;53.800;15.956;2022-07-22T04:11:38;19.90;;;13.00;;
67986;SDS011;54767;53.800;15.956;2022-07-22T04:14:05;23.80;;;13.80;;
67986;SDS011;54767;53.800;15.956;2022-07-22T04:16:32;25.00;;;13.50;;
67986;SDS011;54767;53.800;15.956;2022-07-22T04:18:59;23.90;;;12.90;;
67986;SDS011;54767;53.800;15.956;2022-07-22T04:21:27;23.50;;;13.70;;
67986;SDS011;54767;53.800;15.956;2022-07-22T04:23:54;19.10;;;13.10;;
67986;SDS011;54767;53.800;15.956;2022-07-22T04:26:28;18.80;;;12.90;;
67986;SDS011;54767;53.800;15.956;2022-07-22T04:28:55;19.00;;;13.00;;
67986;SDS011;54767;53.800;15.956;2022-07-22T04:31:23;19.80;;;13.40;;
67986;SDS011;54767;53.800;15.956;2022-07-22T04:33:50;19.00;;;12.10;;
67986;SDS011;54767;53.800;15.956;2022-07-22T04:36:18;16.00;;;12.20;;
67986;SDS011;54767;53.800;15.956;2022-07-22T04:38:45;18.40;;;12.10;;
67986;SDS011;54767;53.800;15.956;2022-07-22T04:41:11;16.90;;;11.80;;
67986;SDS011;54767;53.800;15.956;2022-07-22T04:43:39;17.10;;;12.80;;
67986;SDS011;54767;53.800;15.956;2022-07-22T04:46:06;16.80;;;12.50;;
67986;SDS011;54767;53.800;15.956;2022-07-22T04:48:33;16.80;;;12.70;;
67986;SDS011;54767;53.800;15.956;2022-07-22T04:51:02;16.80;;;12.70;;
67986;SDS011;54767;53.800;15.956;2022-07-22T04:53:30;15.00;;;12.20;;
67986;SDS011;54767;53.800;15.956;2022-07-22T04:56:11;17.10;;;12.80;;
67986;SDS011;54767;53.800;15.956;2022-07-22T04:58:38;18.70;;;12.20;;
67986;SDS011;54767;53.800;15.956;2022-07-22T05:01:05;16.80;;;12.20;;
67986;SDS011;54767;53.800;15.956;2022-07-22T05:03:32;19.40;;;13.30;;
67986;SDS011;54767;53.800;15.956;2022-07-22T05:06:01;17.30;;;12.40;;
67986;SDS011;54767;53.800;15.956;2022-07-22T05:08:28;18.80;;;12.90;;
67986;SDS011;54767;53.800;15.956;2022-07-22T05:10:55;18.00;;;13.00;;
67986;SDS011;54767;53.800;15.956;2022-07-22T05:13:22;16.80;;;12.50;;
67986;SDS011;54767;53.800;15.956;2022-07-22T05:15:49;21.00;;;13.70;;
67986;SDS011;54767;53.800;15.956;2022-07-22T05:18:16;17.40;;;12.80;;
67986;SDS011;54767;53.800;15.956;2022-07-22T05:20:43;17.80;;;13.50;;
67986;SDS011;54767;53.800;15.956;2022-07-22T05:23:10;18.70;;;13.50;;
67986;SDS011;54767;53.800;15.956;2022-07-22T05:25:37;18.20;;;12.60;;
67986;SDS011;54767;53.800;15.956;2022-07-22T05:28:04;21.20;;;13.20;;
67986;SDS011;54767;53.800;15.956;2022-07-22T05:30:32;18.60;;;13.40;;
67986;SDS011;54767;53.800;15.956;2022-07-22T05:32:59;18.20;;;12.60;;
67986;SDS011;54767;53.800;15.956;2022-07-22T05:35:26;17.70;;;12.70;;
67986;SDS011;54767;53.800;15.956;2022-07-22T05:37:53;17.70;;;13.30;;
67986;SDS011;54767;53.800;15.956;2022-07-22T05:40:20;17.60;;;13.10;;
67986;SDS011;54767;53.800;15.956;2022-07-22T05:42:48;17.80;;;13.50;;
67986;SDS011;54767;53.800;15.956;2022-07-22T05:45:15;18.40;;;13.90;;
67986;SDS011;54767;53.800;15.956;2022-07-22T05:47:42;18.10;;;13.60;;
67986;SDS011;54767;53.800;15.956;2022-07-22T05:50:09;17.50;;;12.70;;
67986;SDS011;54767;53.800;15.956;2022-07-22T05:52:36;17.80;;;12.30;;
67986;SDS011;54767;53.800;15.956;2022-07-22T05:55:05;17.60;;;12.50;;
67986;SDS011;54767;53.800;15.956;2022-07-22T05:57:33;16.80;;;12.00;;
67986;SDS011;54767;53.800;15.956;2022-07-22T06:00:00;18.00;;;11.90;;
67986;SDS011;54767;53.800;15.956;2022-07-22T06:02:27;17.80;;;12.40;;
67986;SDS011;54767;53.800;15.956;2022-07-22T06:04:55;16.60;;;12.30;;
67986;SDS011;54767;53.800;15.956;2022-07-22T06:07:22;16.20;;;11.70;;
67986;SDS011;54767;53.800;15.956;2022-07-22T06:09:49;17.70;;;12.20;;
67986;SDS011;54767;53.800;15.956;2022-07-22T06:12:16;16.80;;;11.80;;
67986;SDS011;54767;53.800;15.956;2022-07-22T06:14:43;15.00;;;12.10;;
67986;SDS011;54767;53.800;15.956;2022-07-22T06:17:10;17.90;;;12.30;;
67986;SDS011;54767;53.800;15.956;2022-07-22T06:19:37;17.00;;;12.60;;
67986;SDS011;54767;53.800;15.956;2022-07-22T06:22:05;16.20;;;11.80;;
67986;SDS011;54767;53.800;15.956;2022-07-22T06:24:32;15.60;;;12.00;;
67986;SDS011;54767;53.800;15.956;2022-07-22T06:26:59;17.20;;;12.50;;
67986;SDS011;54767;53.800;15.956;2022-07-22T06:29:26;16.50;;;12.60;;
67986;SDS011;54767;53.800;15.956;2022-07-22T06:31:53;18.20;;;13.30;;
67986;SDS011;54767;53.800;15.956;2022-07-22T06:34:20;17.80;;;13.20;;
67986;SDS011;54767;53.800;15.956;2022-07-22T06:36:47;17.80;;;13.10;;
67986;SDS011;54767;53.800;15.956;2022-07-22T06:39:14;19.10;;;13.70;;
67986;SDS011;54767;53.800;15.956;2022-07-22T06:41:41;18.30;;;13.60;;
67986;SDS011;54767;53.800;15.956;2022-07-22T06:44:08;17.80;;;13.60;;
67986;SDS011;54767;53.800;15.956;2022-07-22T06:46:35;18.70;;;13.00;;
67986;SDS011;54767;53.800;15.956;2022-07-22T06:49:04;18.80;;;13.80;;
67986;SDS011;54767;53.800;15.956;2022-07-22T06:51:31;18.40;;;13.60;;
67986;SDS011;54767;53.800;15.956;2022-07-22T06:53:58;19.70;;;13.30;;
67986;SDS011;54767;53.800;15.956;2022-07-22T06:56:26;18.70;;;14.00;;
67986;SDS011;54767;53.800;15.956;2022-07-22T06:58:53;16.80;;;13.90;;
67986;SDS011;54767;53.800;15.956;2022-07-22T07:01:20;19.00;;;15.10;;
67986;SDS011;54767;53.800;15.956;2022-07-22T07:03:47;23.30;;;14.70;;
67986;SDS011;54767;53.800;15.956;2022-07-22T07:06:15;21.20;;;14.20;;
67986;SDS011;54767;53.800;15.956;2022-07-22T07:08:42;22.70;;;14.90;;
67986;SDS011;54767;53.800;15.956;2022-07-22T07:11:09;18.90;;;14.20;;
67986;SDS011;54767;53.800;15.956;2022-07-22T07:13:36;17.80;;;13.80;;
67986;SDS011;54767;53.800;15.956;2022-07-22T07:16:03;19.60;;;14.20;;
67986;SDS011;54767;53.800;15.956;2022-07-22T07:18:30;18.50;;;13.40;;
67986;SDS011;54767;53.800;15.956;2022-07-22T07:20:57;18.20;;;13.30;;
67986;SDS011;54767;53.800;15.956;2022-07-22T07:23:24;19.70;;;14.50;;
67986;SDS011;54767;53.800;15.956;2022-07-22T07:25:51;18.00;;;13.30;;
67986;SDS011;54767;53.800;15.956;2022-07-22T07:28:20;17.80;;;13.50;;
67986;SDS011;54767;53.800;15.956;2022-07-22T07:30:47;18.30;;;14.20;;
67986;SDS011;54767;53.800;15.956;2022-07-22T07:33:15;20.60;;;14.30;;
67986;SDS011;54767;53.800;15.956;2022-07-22T07:35:42;18.80;;;14.10;;
67986;SDS011;54767;53.800;15.956;2022-07-22T07:38:09;20.10;;;14.70;;
67986;SDS011;54767;53.800;15.956;2022-07-22T07:40:36;19.00;;;15.10;;
67986;SDS011;54767;53.800;15.956;2022-07-22T07:43:04;18.80;;;14.10;;
67986;SDS011;54767;53.800;15.956;2022-07-22T07:45:31;21.10;;;15.70;;
67986;SDS011;54767;53.800;15.956;2022-07-22T07:47:59;20.10;;;14.90;;
67986;SDS011;54767;53.800;15.956;2022-07-22T07:50:26;18.60;;;14.10;;
67986;SDS011;54767;53.800;15.956;2022-07-22T07:52:54;18.40;;;14.50;;
67986;SDS011;54767;53.800;15.956;2022-07-22T07:55:23;18.30;;;14.10;;
67986;SDS011;54767;53.800;15.956;2022-07-22T07:57:50;18.20;;;14.10;;
67986;SDS011;54767;53.800;15.956;2022-07-22T08:00:20;18.70;;;14.50;;
67986;SDS011;54767;53.800;15.956;2022-07-22T08:02:50;18.10;;;14.50;;
67986;SDS011;54767;53.800;15.956;2022-07-22T08:05:17;19.00;;;14.70;;
67986;SDS011;54767;53.800;15.956;2022-07-22T08:07:47;20.20;;;15.80;;
67986;SDS011;54767;53.800;15.956;2022-07-22T08:10:16;21.60;;;15.70;;
67986;SDS011;54767;53.800;15.956;2022-07-22T08:13:04;21.00;;;16.40;;
67986;SDS011;54767;53.800;15.956;2022-07-22T08:15:32;20.30;;;15.00;;
67986;SDS011;54767;53.800;15.956;2022-07-22T08:17:59;19.50;;;14.80;;
67986;SDS011;54767;53.800;15.956;2022-07-22T08:20:27;21.00;;;16.10;;
67986;SDS011;54767;53.800;15.956;2022-07-22T08:22:56;22.00;;;16.20;;
67986;SDS011;54767;53.800;15.956;2022-07-22T08:25:24;22.10;;;16.20;;
67986;SDS011;54767;53.800;15.956;2022-07-22T08:27:52;21.10;;;15.70;;
67986;SDS011;54767;53.800;15.956;2022-07-22T08:30:19;22.90;;;16.30;;
67986;SDS011;54767;53.800;15.956;2022-07-22T08:32:49;24.20;;;17.60;;
67986;SDS011;54767;53.800;15.956;2022-07-22T08:35:17;25.80;;;17.90;;
67986;SDS011;54767;53.800;15.956;2022-07-22T08:37:45;26.10;;;18.80;;
67986;SDS011;54767;53.800;15.956;2022-07-22T08:40:14;24.30;;;18.20;;
67986;SDS011;54767;53.800;15.956;2022-07-22T08:45:11;24.50;;;19.00;;
67986;SDS011;54767;53.800;15.956;2022-07-22T08:47:45;27.10;;;18.90;;
67986;SDS011;54767;53.800;15.956;2022-07-22T08:52:42;23.10;;;19.30;;
67986;SDS011;54767;53.800;15.956;2022-07-22T08:55:10;23.40;;;18.50;;
67986;SDS011;54767;53.800;15.956;2022-07-22T08:57:37;20.80;;;16.00;;
67986;SDS011;54767;53.800;15.956;2022-07-22T09:00:14;17.50;;;14.60;;
67986;SDS011;54767;53.800;15.956;2022-07-22T09:02:45;18.60;;;14.20;;
67986;SDS011;54767;53.800;15.956;2022-07-22T09:05:13;17.30;;;12.80;;
67986;SDS011;54767;53.800;15.956;2022-07-22T09:08:01;14.40;;;11.50;;
67986;SDS011;54767;53.800;15.956;2022-07-22T09:10:32;12.60;;;10.10;;
67986;SDS011;54767;53.800;15.956;2022-07-22T09:13:02;13.30;;;10.70;;
67986;SDS011;54767;53.800;15.956;2022-07-22T09:15:34;9.70;;;8.60;;
67986;SDS011;54767;53.800;15.956;2022-07-22T09:18:06;8.30;;;7.40;;
67986;SDS011;54767;53.800;15.956;2022-07-22T09:20:36;10.00;;;7.90;;
67986;SDS011;54767;53.800;15.956;2022-07-22T09:23:11;9.70;;;7.30;;
67986;SDS011;54767;53.800;15.956;2022-07-22T09:25:41;10.20;;;6.90;;
67986;SDS011;54767;53.800;15.956;2022-07-22T09:30:40;9.00;;;6.90;;
67986;SDS011;54767;53.800;15.956;2022-07-22T09:33:14;10.20;;;7.30;;
67986;SDS011;54767;53.800;15.956;2022-07-22T09:35:43;9.70;;;6.80;;
67986;SDS011;54767;53.800;15.956;2022-07-22T09:38:16;8.40;;;6.90;;
67986;SDS011;54767;53.800;15.956;2022-07-22T09:40:46;7.50;;;6.60;;
67986;SDS011;54767;53.800;15.956;2022-07-22T09:43:17;11.20;;;6.80;;
67986;SDS011;54767;53.800;15.956;2022-07-22T09:45:48;7.60;;;6.90;;
67986;SDS011;54767;53.800;15.956;2022-07-22T09:48:16;8.70;;;7.60;;
67986;SDS011;54767;53.800;15.956;2022-07-22T09:50:45;10.40;;;7.00;;
67986;SDS011;54767;53.800;15.956;2022-07-22T09:53:16;10.60;;;8.00;;
67986;SDS011;54767;53.800;15.956;2022-07-22T09:55:45;11.00;;;9.40;;
67986;SDS011;54767;53.800;15.956;2022-07-22T09:58:13;10.00;;;8.80;;
67986;SDS011;54767;53.800;15.956;2022-07-22T10:00:47;12.20;;;9.90;;
67986;SDS011;54767;53.800;15.956;2022-07-22T10:03:19;13.10;;;10.60;;
67986;SDS011;54767;53.800;15.956;2022-07-22T10:05:54;15.60;;;11.20;;
67986;SDS011;54767;53.800;15.956;2022-07-22T10:08:24;14.60;;;11.40;;
67986;SDS011;54767;53.800;15.956;2022-07-22T10:10:54;13.30;;;11.30;;
67986;SDS011;54767;53.800;15.956;2022-07-22T10:13:27;16.60;;;12.10;;
67986;SDS011;54767;53.800;15.956;2022-07-22T10:15:56;17.50;;;12.50;;
67986;SDS011;54767;53.800;15.956;2022-07-22T10:18:24;15.20;;;11.80;;
67986;SDS011;54767;53.800;15.956;2022-07-22T10:23:33;15.30;;;12.10;;
67986;SDS011;54767;53.800;15.956;2022-07-22T10:26:07;14.60;;;12.00;;
67986;SDS011;54767;53.800;15.956;2022-07-22T10:28:38;15.30;;;11.80;;
67986;SDS011;54767;53.800;15.956;2022-07-22T10:31:21;14.80;;;11.60;;
67986;SDS011;54767;53.800;15.956;2022-07-22T10:33:51;13.50;;;11.00;;
67986;SDS011;54767;53.800;15.956;2022-07-22T10:36:34;13.50;;;10.50;;
67986;SDS011;54767;53.800;15.956;2022-07-22T10:39:10;13.80;;;10.60;;
67986;SDS011;54767;53.800;15.956;2022-07-22T10:41:43;12.00;;;10.00;;
67986;SDS011;54767;53.800;15.956;2022-07-22T10:44:46;17.70;;;13.00;;
67986;SDS011;54767;53.800;15.956;2022-07-22T10:47:51;18.60;;;14.70;;
67986;SDS011;54767;53.800;15.956;2022-07-22T10:53:05;15.80;;;14.10;;
67986;SDS011;54767;53.800;15.956;2022-07-22T10:55:32;14.20;;;11.90;;
67986;SDS011;54767;53.800;15.956;2022-07-22T10:58:27;11.40;;;10.10;;
67986;SDS011;54767;53.800;15.956;2022-07-22T11:01:04;13.80;;;11.00;;
67986;SDS011;54767;53.800;15.956;2022-07-22T11:03:33;16.60;;;12.60;;
67986;SDS011;54767;53.800;15.956;2022-07-22T11:06:13;16.50;;;12.30;;
67986;SDS011;54767;53.800;15.956;2022-07-22T11:08:42;15.30;;;12.50;;
67986;SDS011;54767;53.800;15.956;2022-07-22T11:13:39;13.00;;;11.70;;
67986;SDS011;54767;53.800;15.956;2022-07-22T11:18:52;13.90;;;11.00;;
67986;SDS011;54767;53.800;15.956;2022-07-22T11:21:25;12.20;;;10.50;;
67986;SDS011;54767;53.800;15.956;2022-07-22T11:23:57;12.60;;;10.20;;
67986;SDS011;54767;53.800;15.956;2022-07-22T11:29:07;10.20;;;9.00;;
67986;SDS011;54767;53.800;15.956;2022-07-22T11:31:42;10.20;;;9.00;;
67986;SDS011;54767;53.800;15.956;2022-07-22T11:34:11;9.90;;;8.80;;
67986;SDS011;54767;53.800;15.956;2022-07-22T11:36:41;10.00;;;8.20;;
67986;SDS011;54767;53.800;15.956;2022-07-22T11:39:10;10.60;;;8.40;;
67986;SDS011;54767;53.800;15.956;2022-07-22T11:44:05;10.00;;;8.50;;
67986;SDS011;54767;53.800;15.956;2022-07-22T11:46:35;9.90;;;7.80;;
67986;SDS011;54767;53.800;15.956;2022-07-22T11:49:04;8.40;;;7.40;;
67986;SDS011;54767;53.800;15.956;2022-07-22T11:51:33;9.10;;;7.20;;
